sensor_id;sensor_type;location;lat;lon;timestamp;P1;durP1;ratioP1;P2;durP2;ratioP2
19998;SDS011;10160;50.926;4.374;2024-03-08T00:01:15;36.93;;;14.77;;
19998;SDS011;10160;50.926;4.374;2024-03-08T00:03:41;32.00;;;14.30;;
19998;SDS011;10160;50.926;4.374;2024-03-08T00:06:07;29.33;;;13.47;;
19998;SDS011;10160;50.926;4.374;2024-03-08T00:08:33;28.67;;;13.43;;
19998;SDS011;10160;50.926;4.374;2024-03-08T00:10:59;31.53;;;14.27;;
19998;SDS011;10160;50.926;4.374;2024-03-08T00:13:25;26.30;;;14.33;;
19998;SDS011;10160;50.926;4.374;2024-03-08T00:15:50;31.97;;;14.27;;
19998;SDS011;10160;50.926;4.374;2024-03-08T00:18:16;33.03;;;14.93;;
19998;SDS011;10160;50.926;4.374;2024-03-08T00:20:42;30.20;;;14.90;;
19998;SDS011;10160;50.926;4.374;2024-03-08T00:23:09;29.97;;;14.90;;
19998;SDS011;10160;50.926;4.374;2024-03-08T00:25:36;28.03;;;14.10;;
19998;SDS011;10160;50.926;4.374;2024-03-08T00:28:02;30.77;;;15.20;;
19998;SDS011;10160;50.926;4.374;2024-03-08T00:30:29;31.10;;;15.00;;
19998;SDS011;10160;50.926;4.374;2024-03-08T00:32:56;30.00;;;15.60;;
19998;SDS011;10160;50.926;4.374;2024-03-08T00:35:21;35.37;;;17.20;;
19998;SDS011;10160;50.926;4.374;2024-03-08T00:37:47;34.27;;;15.43;;
19998;SDS011;10160;50.926;4.374;2024-03-08T00:40:13;35.40;;;15.13;;
19998;SDS011;10160;50.926;4.374;2024-03-08T00:42:39;30.17;;;15.47;;
19998;SDS011;10160;50.926;4.374;2024-03-08T00:45:06;32.90;;;15.83;;
19998;SDS011;10160;50.926;4.374;2024-03-08T00:47:35;33.57;;;15.73;;
19998;SDS011;10160;50.926;4.374;2024-03-08T00:50:00;39.33;;;16.93;;
19998;SDS011;10160;50.926;4.374;2024-03-08T00:52:28;32.33;;;15.53;;
19998;SDS011;10160;50.926;4.374;2024-03-08T00:54:54;36.97;;;16.27;;
19998;SDS011;10160;50.926;4.374;2024-03-08T00:57:20;35.30;;;17.10;;
19998;SDS011;10160;50.926;4.374;2024-03-08T00:59:47;40.20;;;17.67;;
19998;SDS011;10160;50.926;4.374;2024-03-08T01:02:13;32.50;;;15.33;;
19998;SDS011;10160;50.926;4.374;2024-03-08T01:04:38;36.23;;;16.27;;
19998;SDS011;10160;50.926;4.374;2024-03-08T01:07:04;34.10;;;16.70;;
19998;SDS011;10160;50.926;4.374;2024-03-08T01:09:30;35.77;;;16.40;;
19998;SDS011;10160;50.926;4.374;2024-03-08T01:11:56;38.50;;;16.33;;
19998;SDS011;10160;50.926;4.374;2024-03-08T01:14:22;42.47;;;18.50;;
19998;SDS011;10160;50.926;4.374;2024-03-08T01:16:50;31.57;;;16.30;;
19998;SDS011;10160;50.926;4.374;2024-03-08T01:19:16;36.60;;;17.10;;
19998;SDS011;10160;50.926;4.374;2024-03-08T01:21:42;35.80;;;17.77;;
19998;SDS011;10160;50.926;4.374;2024-03-08T01:24:08;37.17;;;16.70;;
19998;SDS011;10160;50.926;4.374;2024-03-08T01:26:34;39.67;;;17.20;;
19998;SDS011;10160;50.926;4.374;2024-03-08T01:29:00;35.07;;;17.27;;
19998;SDS011;10160;50.926;4.374;2024-03-08T01:31:28;40.60;;;18.13;;
19998;SDS011;10160;50.926;4.374;2024-03-08T01:33:54;42.27;;;17.83;;
19998;SDS011;10160;50.926;4.374;2024-03-08T01:36:21;36.33;;;17.10;;
19998;SDS011;10160;50.926;4.374;2024-03-08T01:38:46;39.17;;;18.07;;
19998;SDS011;10160;50.926;4.374;2024-03-08T01:41:12;35.60;;;17.73;;
19998;SDS011;10160;50.926;4.374;2024-03-08T01:43:38;35.87;;;18.13;;
19998;SDS011;10160;50.926;4.374;2024-03-08T01:46:04;38.90;;;18.27;;
19998;SDS011;10160;50.926;4.374;2024-03-08T01:48:30;34.20;;;17.27;;
19998;SDS011;10160;50.926;4.374;2024-03-08T01:50:57;39.07;;;19.13;;
19998;SDS011;10160;50.926;4.374;2024-03-08T01:53:29;35.93;;;17.37;;
19998;SDS011;10160;50.926;4.374;2024-03-08T01:55:58;34.33;;;17.27;;
19998;SDS011;10160;50.926;4.374;2024-03-08T01:58:28;32.73;;;17.77;;
19998;SDS011;10160;50.926;4.374;2024-03-08T02:00:56;41.00;;;17.93;;
19998;SDS011;10160;50.926;4.374;2024-03-08T02:03:23;34.73;;;17.87;;
19998;SDS011;10160;50.926;4.374;2024-03-08T02:05:48;35.73;;;17.60;;
19998;SDS011;10160;50.926;4.374;2024-03-08T02:08:16;38.20;;;18.93;;
19998;SDS011;10160;50.926;4.374;2024-03-08T02:10:43;34.33;;;17.30;;
19998;SDS011;10160;50.926;4.374;2024-03-08T02:13:10;35.83;;;18.73;;
19998;SDS011;10160;50.926;4.374;2024-03-08T02:18:24;39.83;;;18.90;;
19998;SDS011;10160;50.926;4.374;2024-03-08T02:20:53;36.77;;;18.07;;
19998;SDS011;10160;50.926;4.374;2024-03-08T02:23:20;40.20;;;18.77;;
19998;SDS011;10160;50.926;4.374;2024-03-08T02:25:47;36.37;;;18.57;;
19998;SDS011;10160;50.926;4.374;2024-03-08T02:28:13;38.47;;;18.90;;
19998;SDS011;10160;50.926;4.374;2024-03-08T02:30:39;38.90;;;19.20;;
19998;SDS011;10160;50.926;4.374;2024-03-08T02:33:05;39.57;;;18.47;;
19998;SDS011;10160;50.926;4.374;2024-03-08T02:35:32;41.30;;;19.87;;
19998;SDS011;10160;50.926;4.374;2024-03-08T02:37:59;35.23;;;18.63;;
19998;SDS011;10160;50.926;4.374;2024-03-08T02:40:25;33.43;;;18.00;;
19998;SDS011;10160;50.926;4.374;2024-03-08T02:42:51;40.13;;;19.20;;
19998;SDS011;10160;50.926;4.374;2024-03-08T02:45:17;41.83;;;21.53;;
19998;SDS011;10160;50.926;4.374;2024-03-08T02:47:43;38.20;;;19.60;;
19998;SDS011;10160;50.926;4.374;2024-03-08T02:50:09;38.33;;;18.77;;
19998;SDS011;10160;50.926;4.374;2024-03-08T02:52:35;35.53;;;19.27;;
19998;SDS011;10160;50.926;4.374;2024-03-08T02:55:01;35.70;;;18.70;;
19998;SDS011;10160;50.926;4.374;2024-03-08T02:57:27;40.07;;;19.03;;
19998;SDS011;10160;50.926;4.374;2024-03-08T02:59:55;37.23;;;19.87;;
19998;SDS011;10160;50.926;4.374;2024-03-08T03:02:21;36.07;;;19.73;;
19998;SDS011;10160;50.926;4.374;2024-03-08T03:04:48;38.50;;;19.53;;
19998;SDS011;10160;50.926;4.374;2024-03-08T03:07:14;36.07;;;19.70;;
19998;SDS011;10160;50.926;4.374;2024-03-08T03:09:40;37.40;;;19.40;;
19998;SDS011;10160;50.926;4.374;2024-03-08T03:12:06;38.47;;;18.90;;
19998;SDS011;10160;50.926;4.374;2024-03-08T03:14:34;43.37;;;20.23;;
19998;SDS011;10160;50.926;4.374;2024-03-08T03:17:03;35.40;;;19.07;;
19998;SDS011;10160;50.926;4.374;2024-03-08T03:19:30;42.20;;;20.63;;
19998;SDS011;10160;50.926;4.374;2024-03-08T03:21:55;39.23;;;20.83;;
19998;SDS011;10160;50.926;4.374;2024-03-08T03:24:22;36.10;;;20.10;;
19998;SDS011;10160;50.926;4.374;2024-03-08T03:26:48;37.87;;;20.57;;
19998;SDS011;10160;50.926;4.374;2024-03-08T03:29:14;37.77;;;20.07;;
19998;SDS011;10160;50.926;4.374;2024-03-08T03:31:42;37.07;;;20.53;;
19998;SDS011;10160;50.926;4.374;2024-03-08T03:34:11;37.63;;;19.27;;
19998;SDS011;10160;50.926;4.374;2024-03-08T03:36:37;38.13;;;19.27;;
19998;SDS011;10160;50.926;4.374;2024-03-08T03:39:07;44.43;;;22.87;;
19998;SDS011;10160;50.926;4.374;2024-03-08T03:41:38;38.57;;;21.07;;
19998;SDS011;10160;50.926;4.374;2024-03-08T03:44:04;39.27;;;20.93;;
19998;SDS011;10160;50.926;4.374;2024-03-08T03:46:33;45.23;;;21.30;;
19998;SDS011;10160;50.926;4.374;2024-03-08T03:49:00;38.37;;;20.47;;
19998;SDS011;10160;50.926;4.374;2024-03-08T03:51:26;39.57;;;20.37;;
19998;SDS011;10160;50.926;4.374;2024-03-08T03:53:54;37.00;;;20.67;;
19998;SDS011;10160;50.926;4.374;2024-03-08T03:56:24;36.50;;;20.57;;
19998;SDS011;10160;50.926;4.374;2024-03-08T03:58:51;41.80;;;21.53;;
19998;SDS011;10160;50.926;4.374;2024-03-08T04:01:16;40.33;;;19.90;;
19998;SDS011;10160;50.926;4.374;2024-03-08T04:03:42;38.70;;;21.23;;
19998;SDS011;10160;50.926;4.374;2024-03-08T04:06:10;39.30;;;20.20;;
19998;SDS011;10160;50.926;4.374;2024-03-08T04:08:36;40.07;;;20.60;;
19998;SDS011;10160;50.926;4.374;2024-03-08T04:11:01;39.60;;;20.30;;
19998;SDS011;10160;50.926;4.374;2024-03-08T04:13:27;44.77;;;22.60;;
19998;SDS011;10160;50.926;4.374;2024-03-08T04:15:53;40.23;;;20.13;;
19998;SDS011;10160;50.926;4.374;2024-03-08T04:18:19;44.47;;;21.83;;
19998;SDS011;10160;50.926;4.374;2024-03-08T04:20:44;40.70;;;20.73;;
19998;SDS011;10160;50.926;4.374;2024-03-08T04:23:10;41.10;;;21.60;;
19998;SDS011;10160;50.926;4.374;2024-03-08T04:25:36;38.63;;;20.60;;
19998;SDS011;10160;50.926;4.374;2024-03-08T04:28:02;39.17;;;21.07;;
19998;SDS011;10160;50.926;4.374;2024-03-08T04:30:28;39.10;;;20.23;;
19998;SDS011;10160;50.926;4.374;2024-03-08T04:32:55;37.70;;;19.90;;
19998;SDS011;10160;50.926;4.374;2024-03-08T04:35:20;40.97;;;21.83;;
19998;SDS011;10160;50.926;4.374;2024-03-08T04:37:46;40.37;;;20.63;;
19998;SDS011;10160;50.926;4.374;2024-03-08T04:40:12;39.17;;;21.03;;
19998;SDS011;10160;50.926;4.374;2024-03-08T04:42:38;40.80;;;21.97;;
19998;SDS011;10160;50.926;4.374;2024-03-08T04:45:05;43.37;;;22.57;;
19998;SDS011;10160;50.926;4.374;2024-03-08T04:47:33;44.60;;;21.53;;
19998;SDS011;10160;50.926;4.374;2024-03-08T04:50:01;45.17;;;21.60;;
19998;SDS011;10160;50.926;4.374;2024-03-08T04:52:27;43.87;;;21.33;;
19998;SDS011;10160;50.926;4.374;2024-03-08T04:54:53;43.07;;;21.90;;
19998;SDS011;10160;50.926;4.374;2024-03-08T04:57:19;39.60;;;21.53;;
19998;SDS011;10160;50.926;4.374;2024-03-08T04:59:44;47.00;;;23.63;;
19998;SDS011;10160;50.926;4.374;2024-03-08T05:02:10;44.53;;;20.83;;
19998;SDS011;10160;50.926;4.374;2024-03-08T05:04:36;45.37;;;20.63;;
19998;SDS011;10160;50.926;4.374;2024-03-08T05:07:02;38.93;;;21.47;;
19998;SDS011;10160;50.926;4.374;2024-03-08T05:09:29;42.13;;;22.03;;
19998;SDS011;10160;50.926;4.374;2024-03-08T05:11:56;40.03;;;21.20;;
19998;SDS011;10160;50.926;4.374;2024-03-08T05:14:24;43.33;;;22.00;;
19998;SDS011;10160;50.926;4.374;2024-03-08T05:16:50;45.07;;;21.23;;
19998;SDS011;10160;50.926;4.374;2024-03-08T05:19:16;41.80;;;22.13;;
19998;SDS011;10160;50.926;4.374;2024-03-08T05:21:46;38.77;;;20.97;;
19998;SDS011;10160;50.926;4.374;2024-03-08T05:24:13;42.37;;;21.47;;
19998;SDS011;10160;50.926;4.374;2024-03-08T05:26:39;41.40;;;21.20;;
19998;SDS011;10160;50.926;4.374;2024-03-08T05:29:05;45.77;;;21.70;;
19998;SDS011;10160;50.926;4.374;2024-03-08T05:31:35;39.50;;;21.10;;
19998;SDS011;10160;50.926;4.374;2024-03-08T05:34:12;38.07;;;20.53;;
19998;SDS011;10160;50.926;4.374;2024-03-08T05:36:39;41.23;;;22.00;;
19998;SDS011;10160;50.926;4.374;2024-03-08T05:39:12;39.37;;;19.77;;
19998;SDS011;10160;50.926;4.374;2024-03-08T05:41:38;39.60;;;21.43;;
19998;SDS011;10160;50.926;4.374;2024-03-08T05:44:05;35.73;;;19.80;;
19998;SDS011;10160;50.926;4.374;2024-03-08T05:46:31;43.27;;;20.47;;
19998;SDS011;10160;50.926;4.374;2024-03-08T05:48:57;43.30;;;22.17;;
19998;SDS011;10160;50.926;4.374;2024-03-08T05:51:24;40.73;;;20.87;;
19998;SDS011;10160;50.926;4.374;2024-03-08T05:53:52;42.07;;;21.17;;
19998;SDS011;10160;50.926;4.374;2024-03-08T05:56:18;45.23;;;20.37;;
19998;SDS011;10160;50.926;4.374;2024-03-08T05:58:44;44.13;;;21.33;;
19998;SDS011;10160;50.926;4.374;2024-03-08T06:01:10;41.33;;;21.37;;
19998;SDS011;10160;50.926;4.374;2024-03-08T06:03:37;50.77;;;21.83;;
19998;SDS011;10160;50.926;4.374;2024-03-08T06:06:11;42.40;;;20.57;;
19998;SDS011;10160;50.926;4.374;2024-03-08T06:08:37;40.30;;;21.40;;
19998;SDS011;10160;50.926;4.374;2024-03-08T06:11:03;43.90;;;21.60;;
19998;SDS011;10160;50.926;4.374;2024-03-08T06:13:31;44.37;;;22.97;;
19998;SDS011;10160;50.926;4.374;2024-03-08T06:15:57;45.53;;;20.30;;
19998;SDS011;10160;50.926;4.374;2024-03-08T06:18:23;41.97;;;21.77;;
19998;SDS011;10160;50.926;4.374;2024-03-08T06:20:48;45.83;;;22.03;;
19998;SDS011;10160;50.926;4.374;2024-03-08T06:23:14;43.83;;;22.10;;
19998;SDS011;10160;50.926;4.374;2024-03-08T06:25:43;37.47;;;20.33;;
19998;SDS011;10160;50.926;4.374;2024-03-08T06:28:09;50.40;;;23.07;;
19998;SDS011;10160;50.926;4.374;2024-03-08T06:30:35;42.50;;;21.13;;
19998;SDS011;10160;50.926;4.374;2024-03-08T06:33:01;42.63;;;20.67;;
19998;SDS011;10160;50.926;4.374;2024-03-08T06:35:27;46.70;;;22.27;;
19998;SDS011;10160;50.926;4.374;2024-03-08T06:37:53;43.07;;;21.90;;
19998;SDS011;10160;50.926;4.374;2024-03-08T06:40:19;42.50;;;21.37;;
19998;SDS011;10160;50.926;4.374;2024-03-08T06:42:44;50.63;;;22.13;;
19998;SDS011;10160;50.926;4.374;2024-03-08T06:45:10;46.87;;;20.97;;
19998;SDS011;10160;50.926;4.374;2024-03-08T06:47:37;46.40;;;22.17;;
19998;SDS011;10160;50.926;4.374;2024-03-08T06:50:03;46.37;;;21.10;;
19998;SDS011;10160;50.926;4.374;2024-03-08T06:52:29;42.07;;;20.70;;
19998;SDS011;10160;50.926;4.374;2024-03-08T06:54:55;45.87;;;20.40;;
19998;SDS011;10160;50.926;4.374;2024-03-08T06:57:22;39.87;;;20.90;;
19998;SDS011;10160;50.926;4.374;2024-03-08T06:59:48;41.13;;;22.47;;
19998;SDS011;10160;50.926;4.374;2024-03-08T07:02:14;38.73;;;20.50;;
19998;SDS011;10160;50.926;4.374;2024-03-08T07:04:40;45.67;;;21.07;;
19998;SDS011;10160;50.926;4.374;2024-03-08T07:07:06;42.40;;;21.47;;
19998;SDS011;10160;50.926;4.374;2024-03-08T07:09:38;49.00;;;22.57;;
19998;SDS011;10160;50.926;4.374;2024-03-08T07:12:03;44.50;;;22.10;;
19998;SDS011;10160;50.926;4.374;2024-03-08T07:14:29;41.60;;;21.00;;
19998;SDS011;10160;50.926;4.374;2024-03-08T07:16:58;37.20;;;20.77;;
19998;SDS011;10160;50.926;4.374;2024-03-08T07:19:24;40.80;;;20.47;;
19998;SDS011;10160;50.926;4.374;2024-03-08T07:21:49;42.73;;;21.67;;
19998;SDS011;10160;50.926;4.374;2024-03-08T07:24:15;42.93;;;21.23;;
19998;SDS011;10160;50.926;4.374;2024-03-08T07:27:05;41.20;;;20.97;;
19998;SDS011;10160;50.926;4.374;2024-03-08T07:29:31;43.87;;;20.60;;
19998;SDS011;10160;50.926;4.374;2024-03-08T07:31:58;38.87;;;19.63;;
19998;SDS011;10160;50.926;4.374;2024-03-08T07:34:42;42.57;;;20.07;;
19998;SDS011;10160;50.926;4.374;2024-03-08T07:37:07;38.37;;;19.57;;
19998;SDS011;10160;50.926;4.374;2024-03-08T07:39:36;38.67;;;20.07;;
19998;SDS011;10160;50.926;4.374;2024-03-08T07:42:05;36.50;;;19.27;;
19998;SDS011;10160;50.926;4.374;2024-03-08T07:44:31;34.33;;;17.77;;
19998;SDS011;10160;50.926;4.374;2024-03-08T07:46:57;38.00;;;18.60;;
19998;SDS011;10160;50.926;4.374;2024-03-08T07:49:23;41.40;;;20.47;;
19998;SDS011;10160;50.926;4.374;2024-03-08T07:51:49;43.27;;;19.20;;
19998;SDS011;10160;50.926;4.374;2024-03-08T07:54:16;38.20;;;18.23;;
19998;SDS011;10160;50.926;4.374;2024-03-08T07:56:42;40.07;;;19.97;;
19998;SDS011;10160;50.926;4.374;2024-03-08T07:59:08;41.07;;;18.70;;
19998;SDS011;10160;50.926;4.374;2024-03-08T08:01:34;39.67;;;20.57;;
19998;SDS011;10160;50.926;4.374;2024-03-08T08:03:59;33.07;;;17.20;;
19998;SDS011;10160;50.926;4.374;2024-03-08T08:06:28;37.10;;;18.57;;
19998;SDS011;10160;50.926;4.374;2024-03-08T08:08:57;38.30;;;19.27;;
19998;SDS011;10160;50.926;4.374;2024-03-08T08:11:22;38.43;;;18.90;;
19998;SDS011;10160;50.926;4.374;2024-03-08T08:13:50;41.47;;;19.53;;
19998;SDS011;10160;50.926;4.374;2024-03-08T08:16:16;39.60;;;19.67;;
19998;SDS011;10160;50.926;4.374;2024-03-08T08:18:42;35.53;;;18.37;;
19998;SDS011;10160;50.926;4.374;2024-03-08T08:21:09;37.07;;;18.53;;
19998;SDS011;10160;50.926;4.374;2024-03-08T08:23:35;38.20;;;19.57;;
19998;SDS011;10160;50.926;4.374;2024-03-08T08:26:01;38.80;;;18.90;;
19998;SDS011;10160;50.926;4.374;2024-03-08T08:28:28;28.43;;;15.43;;
19998;SDS011;10160;50.926;4.374;2024-03-08T08:30:54;36.07;;;16.70;;
19998;SDS011;10160;50.926;4.374;2024-03-08T08:33:20;36.17;;;18.43;;
19998;SDS011;10160;50.926;4.374;2024-03-08T08:35:45;36.20;;;18.47;;
19998;SDS011;10160;50.926;4.374;2024-03-08T08:38:13;37.03;;;18.13;;
19998;SDS011;10160;50.926;4.374;2024-03-08T08:40:38;35.23;;;17.10;;
19998;SDS011;10160;50.926;4.374;2024-03-08T08:43:04;34.13;;;18.37;;
19998;SDS011;10160;50.926;4.374;2024-03-08T08:45:30;35.23;;;16.63;;
19998;SDS011;10160;50.926;4.374;2024-03-08T08:47:56;34.80;;;18.10;;
19998;SDS011;10160;50.926;4.374;2024-03-08T08:50:24;35.83;;;17.97;;
19998;SDS011;10160;50.926;4.374;2024-03-08T08:52:52;35.27;;;17.63;;
19998;SDS011;10160;50.926;4.374;2024-03-08T08:55:18;38.10;;;17.70;;
19998;SDS011;10160;50.926;4.374;2024-03-08T08:57:46;35.00;;;17.87;;
19998;SDS011;10160;50.926;4.374;2024-03-08T09:00:16;30.77;;;16.47;;
19998;SDS011;10160;50.926;4.374;2024-03-08T09:02:44;32.77;;;17.20;;
19998;SDS011;10160;50.926;4.374;2024-03-08T09:05:10;35.03;;;15.80;;
19998;SDS011;10160;50.926;4.374;2024-03-08T09:07:43;33.20;;;16.87;;
19998;SDS011;10160;50.926;4.374;2024-03-08T09:10:12;33.73;;;16.97;;
19998;SDS011;10160;50.926;4.374;2024-03-08T09:12:39;34.37;;;16.80;;
19998;SDS011;10160;50.926;4.374;2024-03-08T09:15:05;30.97;;;16.07;;
19998;SDS011;10160;50.926;4.374;2024-03-08T09:17:36;32.50;;;16.10;;
19998;SDS011;10160;50.926;4.374;2024-03-08T09:20:05;30.43;;;15.83;;
19998;SDS011;10160;50.926;4.374;2024-03-08T09:22:32;31.93;;;15.83;;
19998;SDS011;10160;50.926;4.374;2024-03-08T09:24:57;30.13;;;13.33;;
19998;SDS011;10160;50.926;4.374;2024-03-08T09:27:23;26.03;;;13.53;;
19998;SDS011;10160;50.926;4.374;2024-03-08T09:29:49;29.87;;;15.07;;
19998;SDS011;10160;50.926;4.374;2024-03-08T09:32:14;30.13;;;14.67;;
19998;SDS011;10160;50.926;4.374;2024-03-08T09:34:41;29.90;;;15.17;;
19998;SDS011;10160;50.926;4.374;2024-03-08T09:37:07;33.03;;;16.60;;
19998;SDS011;10160;50.926;4.374;2024-03-08T09:39:34;28.93;;;14.93;;
19998;SDS011;10160;50.926;4.374;2024-03-08T09:42:00;27.97;;;15.00;;
19998;SDS011;10160;50.926;4.374;2024-03-08T09:44:28;31.80;;;15.40;;
19998;SDS011;10160;50.926;4.374;2024-03-08T09:46:54;29.13;;;15.00;;
19998;SDS011;10160;50.926;4.374;2024-03-08T09:49:20;27.60;;;14.07;;
19998;SDS011;10160;50.926;4.374;2024-03-08T09:51:46;24.13;;;12.83;;
19998;SDS011;10160;50.926;4.374;2024-03-08T09:54:12;33.60;;;15.30;;
19998;SDS011;10160;50.926;4.374;2024-03-08T09:56:41;23.40;;;12.33;;
19998;SDS011;10160;50.926;4.374;2024-03-08T09:59:10;27.80;;;14.17;;
19998;SDS011;10160;50.926;4.374;2024-03-08T10:01:47;26.70;;;12.83;;
19998;SDS011;10160;50.926;4.374;2024-03-08T10:04:13;28.17;;;14.00;;
19998;SDS011;10160;50.926;4.374;2024-03-08T10:06:39;27.00;;;13.67;;
19998;SDS011;10160;50.926;4.374;2024-03-08T10:09:05;23.40;;;13.40;;
19998;SDS011;10160;50.926;4.374;2024-03-08T10:11:33;26.73;;;13.77;;
19998;SDS011;10160;50.926;4.374;2024-03-08T10:14:00;24.13;;;12.90;;
19998;SDS011;10160;50.926;4.374;2024-03-08T10:16:29;28.43;;;12.93;;
19998;SDS011;10160;50.926;4.374;2024-03-08T10:18:58;27.40;;;12.20;;
19998;SDS011;10160;50.926;4.374;2024-03-08T10:21:25;25.10;;;12.80;;
19998;SDS011;10160;50.926;4.374;2024-03-08T10:23:51;21.30;;;10.20;;
19998;SDS011;10160;50.926;4.374;2024-03-08T10:26:17;19.47;;;10.57;;
19998;SDS011;10160;50.926;4.374;2024-03-08T10:28:46;24.07;;;12.70;;
19998;SDS011;10160;50.926;4.374;2024-03-08T10:31:16;20.83;;;8.70;;
19998;SDS011;10160;50.926;4.374;2024-03-08T10:33:42;22.37;;;10.77;;
19998;SDS011;10160;50.926;4.374;2024-03-08T10:36:09;20.43;;;11.50;;
19998;SDS011;10160;50.926;4.374;2024-03-08T10:38:36;21.10;;;10.37;;
19998;SDS011;10160;50.926;4.374;2024-03-08T10:41:05;25.43;;;12.87;;
19998;SDS011;10160;50.926;4.374;2024-03-08T10:46:57;23.30;;;12.20;;
19998;SDS011;10160;50.926;4.374;2024-03-08T10:49:26;24.77;;;12.30;;
19998;SDS011;10160;50.926;4.374;2024-03-08T10:52:14;26.17;;;11.40;;
19998;SDS011;10160;50.926;4.374;2024-03-08T10:54:42;20.43;;;10.70;;
19998;SDS011;10160;50.926;4.374;2024-03-08T10:57:10;23.57;;;12.77;;
19998;SDS011;10160;50.926;4.374;2024-03-08T10:59:37;24.60;;;12.20;;
19998;SDS011;10160;50.926;4.374;2024-03-08T11:02:04;20.00;;;10.03;;
19998;SDS011;10160;50.926;4.374;2024-03-08T11:04:31;21.90;;;11.70;;
19998;SDS011;10160;50.926;4.374;2024-03-08T11:07:01;22.33;;;11.97;;
19998;SDS011;10160;50.926;4.374;2024-03-08T11:09:35;22.83;;;12.40;;
19998;SDS011;10160;50.926;4.374;2024-03-08T11:12:18;23.33;;;10.63;;
19998;SDS011;10160;50.926;4.374;2024-03-08T11:14:48;25.97;;;12.80;;
19998;SDS011;10160;50.926;4.374;2024-03-08T11:17:21;19.70;;;11.00;;
19998;SDS011;10160;50.926;4.374;2024-03-08T11:20:12;26.20;;;12.17;;
19998;SDS011;10160;50.926;4.374;2024-03-08T11:25:47;21.33;;;11.00;;
19998;SDS011;10160;50.926;4.374;2024-03-08T11:28:21;26.33;;;11.73;;
19998;SDS011;10160;50.926;4.374;2024-03-08T11:33:24;21.27;;;11.95;;
19998;SDS011;10160;50.926;4.374;2024-03-08T11:36:11;22.23;;;11.65;;
19998;SDS011;10160;50.926;4.374;2024-03-08T11:38:47;23.45;;;12.10;;
19998;SDS011;10160;50.926;4.374;2024-03-08T11:41:23;22.63;;;11.80;;
19998;SDS011;10160;50.926;4.374;2024-03-08T11:43:50;21.73;;;11.43;;
19998;SDS011;10160;50.926;4.374;2024-03-08T11:46:26;25.83;;;10.68;;
19998;SDS011;10160;50.926;4.374;2024-03-08T11:48:54;24.05;;;12.32;;
19998;SDS011;10160;50.926;4.374;2024-03-08T11:51:22;23.45;;;11.80;;
19998;SDS011;10160;50.926;4.374;2024-03-08T11:53:51;23.45;;;12.20;;
19998;SDS011;10160;50.926;4.374;2024-03-08T11:56:17;24.42;;;12.52;;
19998;SDS011;10160;50.926;4.374;2024-03-08T11:58:55;23.15;;;11.15;;
19998;SDS011;10160;50.926;4.374;2024-03-08T12:01:22;22.65;;;11.00;;
19998;SDS011;10160;50.926;4.374;2024-03-08T12:03:55;23.60;;;12.27;;
19998;SDS011;10160;50.926;4.374;2024-03-08T12:06:27;24.77;;;12.65;;
19998;SDS011;10160;50.926;4.374;2024-03-08T12:09:09;24.27;;;12.68;;
19998;SDS011;10160;50.926;4.374;2024-03-08T12:11:38;25.10;;;12.55;;
19998;SDS011;10160;50.926;4.374;2024-03-08T12:14:04;23.33;;;12.60;;
19998;SDS011;10160;50.926;4.374;2024-03-08T12:16:31;23.88;;;12.07;;
19998;SDS011;10160;50.926;4.374;2024-03-08T12:18:57;23.98;;;11.75;;
19998;SDS011;10160;50.926;4.374;2024-03-08T12:21:25;24.58;;;11.93;;
19998;SDS011;10160;50.926;4.374;2024-03-08T12:24:07;23.67;;;12.13;;
19998;SDS011;10160;50.926;4.374;2024-03-08T12:26:38;23.17;;;11.90;;
19998;SDS011;10160;50.926;4.374;2024-03-08T12:29:15;21.75;;;11.43;;
19998;SDS011;10160;50.926;4.374;2024-03-08T12:31:47;22.38;;;11.27;;
19998;SDS011;10160;50.926;4.374;2024-03-08T12:34:15;21.38;;;11.77;;
19998;SDS011;10160;50.926;4.374;2024-03-08T12:36:45;24.45;;;11.13;;
19998;SDS011;10160;50.926;4.374;2024-03-08T12:39:15;21.67;;;12.00;;
19998;SDS011;10160;50.926;4.374;2024-03-08T12:41:42;19.92;;;10.48;;
19998;SDS011;10160;50.926;4.374;2024-03-08T12:44:08;23.27;;;11.63;;
19998;SDS011;10160;50.926;4.374;2024-03-08T12:46:39;20.00;;;11.50;;
19998;SDS011;10160;50.926;4.374;2024-03-08T12:49:08;23.55;;;12.52;;
19998;SDS011;10160;50.926;4.374;2024-03-08T12:51:37;22.95;;;12.07;;
19998;SDS011;10160;50.926;4.374;2024-03-08T12:54:04;21.02;;;11.75;;
19998;SDS011;10160;50.926;4.374;2024-03-08T12:56:32;21.20;;;11.52;;
19998;SDS011;10160;50.926;4.374;2024-03-08T12:58:59;23.25;;;12.32;;
19998;SDS011;10160;50.926;4.374;2024-03-08T13:01:26;22.98;;;11.80;;
19998;SDS011;10160;50.926;4.374;2024-03-08T13:03:55;20.90;;;10.88;;
19998;SDS011;10160;50.926;4.374;2024-03-08T13:06:20;21.02;;;12.38;;
19998;SDS011;10160;50.926;4.374;2024-03-08T13:08:49;19.77;;;11.63;;
19998;SDS011;10160;50.926;4.374;2024-03-08T13:11:17;20.50;;;11.20;;
19998;SDS011;10160;50.926;4.374;2024-03-08T13:13:44;20.50;;;11.52;;
19998;SDS011;10160;50.926;4.374;2024-03-08T13:16:10;22.35;;;11.25;;
19998;SDS011;10160;50.926;4.374;2024-03-08T13:18:39;23.95;;;11.75;;
19998;SDS011;10160;50.926;4.374;2024-03-08T13:21:07;20.27;;;11.65;;
19998;SDS011;10160;50.926;4.374;2024-03-08T13:23:36;21.42;;;11.85;;
19998;SDS011;10160;50.926;4.374;2024-03-08T13:26:09;22.83;;;11.23;;
19998;SDS011;10160;50.926;4.374;2024-03-08T13:28:42;22.73;;;11.52;;
19998;SDS011;10160;50.926;4.374;2024-03-08T13:31:08;21.10;;;11.77;;
19998;SDS011;10160;50.926;4.374;2024-03-08T13:33:37;21.15;;;11.55;;
19998;SDS011;10160;50.926;4.374;2024-03-08T13:36:07;22.60;;;13.02;;
19998;SDS011;10160;50.926;4.374;2024-03-08T13:38:39;20.27;;;11.32;;
19998;SDS011;10160;50.926;4.374;2024-03-08T13:41:09;25.67;;;11.55;;
19998;SDS011;10160;50.926;4.374;2024-03-08T13:43:40;24.35;;;10.98;;
19998;SDS011;10160;50.926;4.374;2024-03-08T13:46:06;24.27;;;11.90;;
19998;SDS011;10160;50.926;4.374;2024-03-08T13:48:32;21.77;;;10.60;;
19998;SDS011;10160;50.926;4.374;2024-03-08T13:50:58;22.73;;;11.77;;
19998;SDS011;10160;50.926;4.374;2024-03-08T13:53:25;23.90;;;12.15;;
19998;SDS011;10160;50.926;4.374;2024-03-08T13:55:51;20.65;;;11.65;;
19998;SDS011;10160;50.926;4.374;2024-03-08T13:58:17;26.40;;;12.75;;
19998;SDS011;10160;50.926;4.374;2024-03-08T14:00:45;25.83;;;11.00;;
19998;SDS011;10160;50.926;4.374;2024-03-08T14:03:12;21.33;;;11.50;;
19998;SDS011;10160;50.926;4.374;2024-03-08T14:05:39;25.67;;;13.18;;
19998;SDS011;10160;50.926;4.374;2024-03-08T14:08:06;22.10;;;11.65;;
19998;SDS011;10160;50.926;4.374;2024-03-08T14:10:33;22.73;;;11.70;;
19998;SDS011;10160;50.926;4.374;2024-03-08T14:12:59;25.73;;;13.00;;
19998;SDS011;10160;50.926;4.374;2024-03-08T14:15:25;26.23;;;12.77;;
19998;SDS011;10160;50.926;4.374;2024-03-08T14:17:57;25.05;;;12.65;;
19998;SDS011;10160;50.926;4.374;2024-03-08T14:20:23;26.07;;;13.37;;
19998;SDS011;10160;50.926;4.374;2024-03-08T14:22:55;34.13;;;14.60;;
19998;SDS011;10160;50.926;4.374;2024-03-08T14:25:21;21.63;;;11.40;;
19998;SDS011;10160;50.926;4.374;2024-03-08T14:27:49;26.63;;;12.25;;
19998;SDS011;10160;50.926;4.374;2024-03-08T14:30:16;20.88;;;11.93;;
19998;SDS011;10160;50.926;4.374;2024-03-08T14:32:57;23.67;;;12.30;;
19998;SDS011;10160;50.926;4.374;2024-03-08T14:35:26;23.02;;;10.75;;